Time;durP1;ratioP1;P1;durP2;ratioP2;P2;SDS_P1;SDS_P2;PMS_P1;PMS_P2;Temp;Humidity;BMP_temperature;BMP_pressure;BME280_temperature;BME280_humidity;BME280_pressure;Samples;Min_cycle;Max_cycle;Signal;HPM_P1;HPM_P2
2022/07/21 00:00:09;;;;;;;4.47;4.07;;;26.30;99.90;;;;;;1043337;28;20609;-62
2022/07/21 00:00:39;;;;;;;4.85;4.43;;;26.30;99.90;;;;;;1043234;28;20021;-63
2022/07/21 00:01:10;;;;;;;5.37;3.97;;;26.30;99.90;;;;;;1043173;28;20021;-63
2022/07/21 00:01:41;;;;;;;6.68;4.13;;;26.30;99.90;;;;;;1042977;28;20040;-64
2022/07/21 00:02:12;;;;;;;5.80;4.17;;;26.30;99.90;;;;;;1043296;28;20388;-63
2022/07/21 00:02:42;;;;;;;4.50;4.10;;;26.30;99.90;;;;;;1043033;28;20052;-63
2022/07/21 00:03:13;;;;;;;4.77;3.80;;;26.30;99.90;;;;;;1043268;28;20021;-63
2022/07/21 00:03:43;;;;;;;4.47;4.07;;;26.30;99.90;;;;;;1043185;28;20063;-63
2022/07/21 00:04:15;;;;;;;4.63;3.67;;;26.30;99.90;;;;;;1043227;28;20534;-63
2022/07/21 00:04:46;;;;;;;4.45;4.05;;;26.30;99.90;;;;;;1043359;28;20021;-64
2022/07/21 00:05:17;;;;;;;4.00;3.60;;;26.30;99.90;;;;;;1043278;28;20021;-64
2022/07/21 00:05:47;;;;;;;4.35;3.95;;;26.30;99.90;;;;;;1043272;28;20025;-64
2022/07/21 00:06:18;;;;;;;4.27;3.87;;;26.30;99.90;;;;;;1043267;28;20013;-63
2022/07/21 00:06:49;;;;;;;3.97;3.57;;;26.30;99.90;;;;;;1043322;28;20098;-63
2022/07/21 00:07:19;;;;;;;4.10;3.70;;;26.30;99.90;;;;;;1043333;28;20657;-64
2022/07/21 00:07:51;;;;;;;5.97;3.77;;;26.30;99.90;;;;;;1043240;28;20029;-63
2022/07/21 00:08:22;;;;;;;4.38;3.65;;;26.30;99.90;;;;;;1040054;28;20021;-63
2022/07/21 00:08:52;;;;;;;4.33;3.93;;;26.30;99.90;;;;;;1039171;28;20017;-64
2022/07/21 00:09:23;;;;;;;4.03;3.63;;;26.30;99.90;;;;;;1042724;28;20091;-63
2022/07/21 00:09:55;;;;;;;4.23;3.70;;;26.30;99.90;;;;;;1043280;28;20036;-63
2022/07/21 00:10:26;;;;;;;3.78;3.30;;;26.30;99.90;;;;;;1043182;28;20039;-63
2022/07/21 00:10:57;;;;;;;4.38;3.97;;;26.30;99.90;;;;;;1043092;28;20021;-65
2022/07/21 00:11:28;;;;;;;4.30;3.90;;;26.30;99.90;;;;;;1043318;28;20021;-63
2022/07/21 00:11:58;;;;;;;4.13;3.73;;;26.30;99.90;;;;;;1043192;28;20028;-64
2022/07/21 00:12:29;;;;;;;4.77;3.47;;;26.30;99.90;;;;;;1043388;28;20075;-65
2022/07/21 00:13:00;;;;;;;4.90;4.30;;;26.30;99.90;;;;;;1043052;28;20033;-62
2022/07/21 00:13:30;;;;;;;6.20;3.97;;;26.30;99.90;;;;;;1043356;28;20163;-63
2022/07/21 00:14:01;;;;;;;3.70;3.40;;;26.30;99.90;;;;;;1043205;28;20708;-62
2022/07/21 00:14:32;;;;;;;4.68;4.10;;;26.30;99.90;;;;;;1043396;28;20017;-62
2022/07/21 00:15:05;;;;;;;4.87;3.93;;;26.30;99.90;;;;;;1043146;28;20056;-63
2022/07/21 00:15:35;;;;;;;4.35;3.60;;;26.20;99.90;;;;;;1043349;28;20083;-63
2022/07/21 00:16:06;;;;;;;3.80;3.40;;;26.20;99.90;;;;;;1043065;28;20144;-63
2022/07/21 00:16:38;;;;;;;4.33;3.67;;;26.20;99.90;;;;;;1043290;28;20024;-62
2022/07/21 00:17:09;;;;;;;3.75;3.45;;;26.20;99.90;;;;;;1043196;28;20075;-64
2022/07/21 00:17:40;;;;;;;3.93;3.53;;;26.20;99.90;;;;;;1043197;28;20098;-63
2022/07/21 00:18:11;;;;;;;4.00;3.60;;;26.20;99.90;;;;;;1043221;28;20017;-63
2022/07/21 00:18:41;;;;;;;4.27;3.87;;;26.20;99.90;;;;;;1043297;28;20480;-64
2022/07/21 00:19:12;;;;;;;4.10;3.70;;;26.20;99.90;;;;;;1043059;28;20064;-63
2022/07/21 00:19:42;;;;;;;4.27;3.87;;;26.20;99.90;;;;;;1043282;28;20024;-63
2022/07/21 00:20:15;;;;;;;4.27;3.80;;;26.20;99.90;;;;;;1043128;28;20162;-63
2022/07/21 00:20:45;;;;;;;4.07;3.65;;;26.20;99.90;;;;;;1043270;28;20040;-64
2022/07/21 00:21:16;;;;;;;4.73;3.50;;;26.20;99.90;;;;;;1043067;28;20049;-63
2022/07/21 00:21:47;;;;;;;4.07;3.77;;;26.20;99.90;;;;;;1043206;28;20452;-63
2022/07/21 00:22:17;;;;;;;3.83;3.43;;;26.20;99.90;;;;;;1043070;28;20054;-62
2022/07/21 00:22:48;;;;;;;3.70;3.40;;;26.20;99.90;;;;;;1043305;28;20029;-63
2022/07/21 00:23:19;;;;;;;4.07;3.67;;;26.20;99.90;;;;;;1042812;28;20064;-63
2022/07/21 00:23:49;;;;;;;4.03;3.63;;;26.20;99.90;;;;;;1043367;28;20021;-63
2022/07/21 00:24:20;;;;;;;4.83;3.97;;;26.20;99.90;;;;;;1043076;28;20028;-62
2022/07/21 00:24:51;;;;;;;3.78;3.38;;;26.20;99.90;;;;;;1043355;28;20155;-63
2022/07/21 00:25:22;;;;;;;3.80;3.27;;;26.20;99.90;;;;;;1043103;28;20047;-63
2022/07/21 00:25:53;;;;;;;6.53;3.90;;;26.20;99.90;;;;;;1042772;28;20025;-62
2022/07/21 00:26:24;;;;;;;4.95;3.63;;;26.20;99.90;;;;;;1042683;28;20021;-63
2022/07/21 00:26:55;;;;;;;4.43;4.03;;;26.10;99.90;;;;;;1042879;28;20036;-63
2022/07/21 00:27:25;;;;;;;3.90;3.50;;;26.10;99.90;;;;;;1042665;28;20328;-63
2022/07/21 00:27:56;;;;;;;4.50;3.73;;;26.10;99.90;;;;;;1042967;28;20020;-63
2022/07/21 00:28:26;;;;;;;4.73;3.63;;;26.10;99.90;;;;;;1042845;28;20108;-63
2022/07/21 00:28:57;;;;;;;3.83;3.53;;;26.10;99.90;;;;;;1043187;28;20102;-62
2022/07/21 00:29:28;;;;;;;4.13;3.73;;;26.10;99.90;;;;;;1043229;28;20028;-63
2022/07/21 00:29:59;;;;;;;3.80;3.43;;;26.20;99.90;;;;;;1043108;28;20090;-62
2022/07/21 00:30:29;;;;;;;4.37;3.47;;;26.10;99.90;;;;;;1043258;28;20027;-64
2022/07/21 00:31:00;;;;;;;3.87;3.57;;;26.10;99.90;;;;;;1043099;28;20477;-64
2022/07/21 00:31:31;;;;;;;3.93;3.63;;;26.10;99.90;;;;;;1043186;28;20021;-62
2022/07/21 00:32:03;;;;;;;3.43;3.13;;;26.10;99.90;;;;;;1043204;28;20032;-63
2022/07/21 00:32:34;;;;;;;3.53;3.22;;;26.10;99.90;;;;;;1043149;28;20524;-63
2022/07/21 00:33:05;;;;;;;3.77;3.47;;;26.10;99.90;;;;;;1043128;28;20489;-63
2022/07/21 00:33:35;;;;;;;4.03;3.63;;;26.10;99.90;;;;;;1043213;28;20017;-63
2022/07/21 00:34:06;;;;;;;3.70;3.40;;;26.00;99.90;;;;;;1043105;28;20066;-64
2022/07/21 00:34:36;;;;;;;3.57;3.27;;;26.10;99.90;;;;;;1043132;28;20120;-64
2022/07/21 00:35:08;;;;;;;3.57;3.27;;;26.00;99.90;;;;;;1043237;28;20070;-63
2022/07/21 00:35:39;;;;;;;4.05;3.65;;;26.00;99.90;;;;;;1042989;28;20032;-63
2022/07/21 00:36:10;;;;;;;3.92;3.42;;;26.00;99.90;;;;;;1043115;28;20024;-64
2022/07/21 00:36:40;;;;;;;4.03;3.70;;;26.00;99.90;;;;;;1043203;28;20053;-63
2022/07/21 00:37:11;;;;;;;3.87;3.57;;;26.00;99.90;;;;;;1042981;28;20071;-63
2022/07/21 00:37:41;;;;;;;3.70;3.33;;;26.00;99.90;;;;;;1043168;28;20106;-63
2022/07/21 00:38:12;;;;;;;3.80;3.40;;;26.00;99.90;;;;;;1043003;28;20431;-64
2022/07/21 00:38:43;;;;;;;3.37;3.07;;;26.00;99.90;;;;;;1043186;28;20076;-63
2022/07/21 00:39:14;;;;;;;3.40;3.10;;;26.00;99.90;;;;;;1042596;28;20026;-63
2022/07/21 00:39:44;;;;;;;4.00;3.60;;;26.00;99.90;;;;;;1042967;28;20017;-64
2022/07/21 00:40:17;;;;;;;3.57;3.27;;;26.00;99.90;;;;;;1042626;28;20025;-63
2022/07/21 00:40:48;;;;;;;4.13;3.00;;;26.00;99.90;;;;;;1039028;28;20021;-63
2022/07/21 00:41:19;;;;;;;3.40;3.10;;;26.00;99.90;;;;;;1038761;28;20033;-63
2022/07/21 00:41:49;;;;;;;3.53;3.23;;;26.00;99.90;;;;;;1039243;28;20029;-63
2022/07/21 00:42:26;;;;;;;3.60;3.30;;;26.00;99.90;;;;;;1038772;28;20444;-62
2022/07/21 00:42:57;;;;;;;3.53;3.08;;;26.00;99.90;;;;;;1038613;28;20064;-63
2022/07/21 00:43:28;;;;;;;4.60;3.70;;;26.00;99.90;;;;;;1038539;28;20040;-63
2022/07/21 00:43:58;;;;;;;4.30;3.27;;;26.00;99.90;;;;;;1038791;28;20014;-64
2022/07/21 00:44:29;;;;;;;4.20;3.50;;;26.00;99.90;;;;;;1038527;28;20426;-65
2022/07/21 00:45:01;;;;;;;3.20;2.93;;;26.00;99.90;;;;;;1039113;28;20097;-64
2022/07/21 00:45:31;;;;;;;3.97;3.58;;;26.00;99.90;;;;;;1038903;28;20090;-63
2022/07/21 00:46:02;;;;;;;3.60;3.10;;;26.10;99.90;;;;;;1042413;28;20420;-63
2022/07/21 00:46:33;;;;;;;4.30;3.63;;;26.10;99.90;;;;;;1043050;28;20032;-62
2022/07/21 00:47:03;;;;;;;4.07;3.67;;;26.00;99.90;;;;;;1043222;28;20028;-62
2022/07/21 00:47:35;;;;;;;4.23;3.83;;;26.00;99.90;;;;;;1042877;28;20110;-62
2022/07/21 00:48:06;;;;;;;3.47;3.17;;;26.00;99.90;;;;;;1043192;28;20472;-63
2022/07/21 00:48:37;;;;;;;3.73;3.30;;;26.00;99.90;;;;;;1042958;28;20017;-62
2022/07/21 00:49:08;;;;;;;3.70;3.37;;;26.00;99.90;;;;;;1043244;28;20040;-63
2022/07/21 00:49:38;;;;;;;3.57;3.27;;;26.00;99.90;;;;;;1042599;28;20260;-63
2022/07/21 00:50:13;;;;;;;3.40;3.10;;;26.00;99.90;;;;;;1043258;28;20025;-62
2022/07/21 00:50:43;;;;;;;3.97;3.38;;;26.00;99.90;;;;;;1042924;28;20025;-63
2022/07/21 00:51:14;;;;;;;3.83;3.43;;;26.00;99.90;;;;;;1043143;28;20107;-63
2022/07/21 00:51:45;;;;;;;4.67;3.07;;;26.00;99.90;;;;;;1042975;28;20017;-63
2022/07/21 00:52:16;;;;;;;4.07;3.40;;;26.00;99.90;;;;;;1043172;28;20100;-63
2022/07/21 00:52:48;;;;;;;5.43;3.40;;;26.00;99.90;;;;;;1043084;28;20609;-62
2022/07/21 00:53:19;;;;;;;4.50;3.22;;;26.00;99.90;;;;;;1043146;28;20025;-63
2022/07/21 00:53:49;;;;;;;4.47;3.73;;;26.00;99.90;;;;;;1042945;28;20107;-62
2022/07/21 00:54:20;;;;;;;3.50;3.20;;;26.00;99.90;;;;;;1043205;28;20057;-62
2022/07/21 00:54:51;;;;;;;3.97;3.43;;;26.00;99.90;;;;;;1042937;28;20032;-62
2022/07/21 00:55:23;;;;;;;3.60;3.30;;;26.00;99.90;;;;;;1043038;28;20044;-62
2022/07/21 00:55:53;;;;;;;3.80;3.28;;;26.00;99.90;;;;;;1042999;28;20672;-62
2022/07/21 00:56:24;;;;;;;3.83;3.37;;;26.00;99.90;;;;;;1042998;28;20440;-62
2022/07/21 00:56:54;;;;;;;3.47;3.17;;;26.00;99.90;;;;;;1043078;28;20028;-62
2022/07/21 00:57:25;;;;;;;4.03;3.43;;;25.90;99.90;;;;;;1043136;28;20170;-62
2022/07/21 00:57:56;;;;;;;4.68;3.40;;;26.00;99.90;;;;;;1042913;28;20029;-63
2022/07/21 00:58:27;;;;;;;3.57;3.27;;;25.90;99.90;;;;;;1043223;28;20186;-63
2022/07/21 00:58:58;;;;;;;4.10;3.67;;;25.90;99.90;;;;;;1042566;28;20109;-62
2022/07/21 00:59:30;;;;;;;4.23;3.40;;;25.90;99.90;;;;;;1042744;28;20085;-63
2022/07/21 01:00:02;;;;;;;3.80;3.50;;;25.90;99.90;;;;;;1042505;28;20029;-63
2022/07/21 01:00:33;;;;;;;4.22;3.33;;;25.90;99.90;;;;;;1042838;28;20480;-63
2022/07/21 01:01:04;;;;;;;4.03;3.63;;;25.90;99.90;;;;;;1043001;28;20707;-63
2022/07/21 01:01:35;;;;;;;4.63;3.20;;;25.90;99.90;;;;;;1043148;28;20021;-64
2022/07/21 01:02:05;;;;;;;3.70;3.30;;;25.90;99.90;;;;;;1042533;28;20048;-63
2022/07/21 01:02:36;;;;;;;3.40;3.10;;;25.90;99.90;;;;;;1042945;28;20067;-63
2022/07/21 01:03:08;;;;;;;3.70;3.40;;;25.90;99.90;;;;;;1043144;28;20425;-63
2022/07/21 01:03:38;;;;;;;4.38;3.78;;;25.80;99.90;;;;;;1042810;28;20025;-63
2022/07/21 01:04:09;;;;;;;4.50;3.87;;;25.80;99.90;;;;;;1043243;28;20013;-63
2022/07/21 01:04:40;;;;;;;3.73;3.43;;;25.80;99.90;;;;;;1042963;28;20029;-64
2022/07/21 01:05:15;;;;;;;3.67;3.37;;;25.90;99.90;;;;;;1043124;28;20017;-63
2022/07/21 01:05:45;;;;;;;3.20;2.90;;;25.90;99.90;;;;;;1043060;28;20032;-63
2022/07/21 01:06:16;;;;;;;3.53;3.23;;;25.90;99.90;;;;;;1042996;28;20021;-62
2022/07/21 01:06:47;;;;;;;4.53;3.93;;;25.80;99.90;;;;;;1043110;28;20017;-62
2022/07/21 01:07:19;;;;;;;3.33;3.03;;;25.80;99.90;;;;;;1042999;28;20024;-62
2022/07/21 01:07:53;;;;;;;4.47;3.42;;;25.80;99.90;;;;;;1043182;28;20100;-62
2022/07/21 01:08:23;;;;;;;3.40;3.10;;;25.80;99.90;;;;;;1039349;28;20009;-63
2022/07/21 01:08:54;;;;;;;3.90;3.50;;;25.80;99.90;;;;;;1039082;28;20014;-64
2022/07/21 01:09:25;;;;;;;3.85;3.28;;;25.80;99.90;;;;;;1042629;28;20455;-63
2022/07/21 01:09:56;;;;;;;3.60;3.30;;;25.90;99.90;;;;;;1043096;28;20013;-63
2022/07/21 01:10:27;;;;;;;4.43;4.03;;;25.80;99.90;;;;;;1042949;28;20013;-63
2022/07/21 01:10:57;;;;;;;4.33;3.93;;;25.80;99.90;;;;;;1043154;28;20111;-62
2022/07/21 01:11:29;;;;;;;3.90;3.50;;;25.80;99.90;;;;;;1043015;28;20028;-63
2022/07/21 01:12:01;;;;;;;4.75;4.03;;;25.80;99.90;;;;;;1042913;28;20021;-62
2022/07/21 01:12:32;;;;;;;4.40;3.90;;;25.90;99.90;;;;;;1043012;28;20065;-63
2022/07/21 01:13:02;;;;;;;4.07;3.67;;;25.80;99.90;;;;;;1042934;28;20016;-62
2022/07/21 01:13:33;;;;;;;3.57;3.27;;;25.80;99.90;;;;;;1043017;28;20027;-62
2022/07/21 01:14:04;;;;;;;3.73;3.43;;;25.80;99.90;;;;;;1042956;28;20017;-62
2022/07/21 01:14:34;;;;;;;3.40;3.10;;;25.80;99.90;;;;;;1042975;28;20025;-62
2022/07/21 01:15:06;;;;;;;4.00;3.60;;;25.80;99.90;;;;;;1043144;28;20682;-62
2022/07/21 01:15:37;;;;;;;3.67;3.38;;;25.80;99.90;;;;;;1042898;28;20373;-62
2022/07/21 01:16:09;;;;;;;4.03;3.67;;;25.80;99.90;;;;;;1043090;28;20380;-62
2022/07/21 01:16:41;;;;;;;4.20;3.80;;;25.80;99.90;;;;;;1042895;28;20025;-63
2022/07/21 01:17:11;;;;;;;4.35;3.95;;;25.80;99.90;;;;;;1043077;28;20025;-63
2022/07/21 01:17:44;;;;;;;5.30;3.70;;;25.80;99.90;;;;;;1042621;28;20029;-65
2022/07/21 01:18:15;;;;;;;3.08;2.78;;;25.80;99.90;;;;;;1038898;28;20240;-63
2022/07/21 01:18:45;;;;;;;3.93;3.53;;;25.80;99.90;;;;;;1038851;28;20022;-62
2022/07/21 01:19:16;;;;;;;3.77;3.43;;;25.80;99.90;;;;;;1038956;28;20022;-62
2022/07/21 01:19:47;;;;;;;3.50;3.20;;;25.80;99.90;;;;;;1039085;28;20017;-62
2022/07/21 01:20:20;;;;;;;3.60;3.30;;;25.80;99.90;;;;;;1038670;28;20020;-63
2022/07/21 01:20:53;;;;;;;3.50;3.20;;;25.80;99.90;;;;;;1039033;28;20018;-64
2022/07/21 01:21:34;;;;;;;4.18;3.78;;;25.80;99.90;;;;;;1038767;28;20098;-62
2022/07/21 01:22:06;;;;;;;7.90;3.58;;;25.80;99.90;;;;;;1038715;28;20020;-64
2022/07/21 01:22:40;;;;;;;3.80;3.40;;;25.80;99.90;;;;;;1038800;28;20025;-62
2022/07/21 01:23:11;;;;;;;3.50;3.20;;;25.80;99.90;;;;;;1038869;28;20344;-62
2022/07/21 01:23:41;;;;;;;3.73;3.43;;;25.80;99.90;;;;;;1038886;28;20584;-63
2022/07/21 01:24:12;;;;;;;3.40;3.10;;;25.80;99.90;;;;;;1038701;28;20244;-61
2022/07/21 01:24:43;;;;;;;4.40;3.90;;;25.80;99.90;;;;;;1038996;28;20527;-64
2022/07/21 01:25:14;;;;;;;4.17;3.63;;;25.80;99.90;;;;;;1038824;28;20017;-64
2022/07/21 01:25:50;;;;;;;4.45;3.63;;;25.80;99.90;;;;;;1039062;28;20112;-62
2022/07/21 01:26:21;;;;;;;3.75;3.45;;;25.80;99.90;;;;;;1038627;28;20022;-63
2022/07/21 01:26:52;;;;;;;4.83;3.63;;;25.80;99.90;;;;;;1039031;28;20049;-64
2022/07/21 01:27:27;;;;;;;4.70;3.30;;;25.80;99.90;;;;;;1038653;28;20013;-64
2022/07/21 01:27:58;;;;;;;4.03;3.50;;;25.80;99.90;;;;;;1038955;28;20025;-63
2022/07/21 01:28:29;;;;;;;3.63;3.28;;;25.80;99.90;;;;;;1038758;28;20024;-64
2022/07/21 01:28:59;;;;;;;4.43;4.03;;;25.80;99.90;;;;;;1039037;28;20097;-63
2022/07/21 01:29:30;;;;;;;4.13;3.50;;;25.80;99.90;;;;;;1038687;28;20017;-63
2022/07/21 01:30:02;;;;;;;3.37;3.07;;;25.80;99.90;;;;;;1039038;28;20382;-64
2022/07/21 01:30:32;;;;;;;3.78;3.28;;;25.80;99.90;;;;;;1038723;28;20029;-63
2022/07/21 01:31:03;;;;;;;4.27;3.67;;;25.80;99.90;;;;;;1038951;28;20071;-64
2022/07/21 01:31:34;;;;;;;4.50;3.83;;;25.80;99.90;;;;;;1038729;28;20032;-64
2022/07/21 01:32:05;;;;;;;4.03;3.63;;;25.80;99.90;;;;;;1039085;28;20013;-64
2022/07/21 01:32:36;;;;;;;3.97;3.57;;;25.80;99.90;;;;;;1038738;28;20083;-63
2022/07/21 01:33:07;;;;;;;4.05;3.65;;;25.80;99.90;;;;;;1039045;28;20013;-63
2022/07/21 01:33:38;;;;;;;4.20;3.60;;;25.80;99.90;;;;;;1038739;28;20017;-63
2022/07/21 01:34:09;;;;;;;3.97;3.57;;;25.80;99.90;;;;;;1038908;28;20097;-63
2022/07/21 01:34:39;;;;;;;5.32;3.45;;;25.80;99.90;;;;;;1038708;28;20029;-63
2022/07/21 01:35:14;;;;;;;4.37;3.97;;;25.80;99.90;;;;;;1038873;28;20104;-63
2022/07/21 01:35:46;;;;;;;4.30;3.85;;;25.80;99.90;;;;;;1038582;28;20025;-63
2022/07/21 01:36:17;;;;;;;5.15;3.42;;;25.80;99.90;;;;;;1038766;28;20033;-63
2022/07/21 01:36:47;;;;;;;4.30;3.90;;;25.80;99.90;;;;;;1038744;28;20024;-63
2022/07/21 01:37:23;;;;;;;4.00;3.60;;;25.70;99.90;;;;;;1038714;28;20109;-63
2022/07/21 01:37:54;;;;;;;4.22;3.83;;;25.70;99.90;;;;;;1038706;28;20104;-63
2022/07/21 01:41:47;;;;;;;6.28;3.60;;;25.70;99.90;;;;;;1039056;28;20032;-64
2022/07/21 01:42:18;;;;;;;4.03;3.73;;;25.70;99.90;;;;;;1038446;28;20013;-63
2022/07/21 01:42:48;;;;;;;4.67;3.93;;;25.70;99.90;;;;;;1038970;28;20487;-63
2022/07/21 01:43:19;;;;;;;4.80;4.07;;;25.70;99.90;;;;;;1038598;28;20480;-63
2022/07/21 01:43:49;;;;;;;3.60;3.30;;;25.60;99.90;;;;;;1038903;28;20120;-63
2022/07/21 01:44:20;;;;;;;4.67;4.27;;;25.60;99.90;;;;;;1038514;28;20120;-66
2022/07/21 01:44:51;;;;;;;4.28;3.88;;;25.60;99.90;;;;;;1039041;28;20060;-63
2022/07/21 01:45:23;;;;;;;4.90;4.40;;;25.60;99.90;;;;;;1038515;28;20025;-63
2022/07/21 01:45:53;;;;;;;4.10;3.70;;;25.60;99.90;;;;;;1040100;28;20010;-63
2022/07/21 01:46:26;;;;;;;4.00;3.60;;;25.60;99.90;;;;;;1042693;28;20017;-63
2022/07/21 01:46:56;;;;;;;5.47;4.97;;;25.60;99.90;;;;;;1043189;28;20144;-62
2022/07/21 01:47:27;;;;;;;4.73;4.33;;;25.60;99.90;;;;;;1042747;28;20033;-63
2022/07/21 01:47:58;;;;;;;5.82;4.40;;;25.60;99.90;;;;;;1042906;28;20029;-62
2022/07/21 01:48:28;;;;;;;4.43;4.03;;;25.60;99.90;;;;;;1042725;28;20761;-62
2022/07/21 01:48:59;;;;;;;4.90;4.43;;;25.60;99.90;;;;;;1042877;28;20491;-63
2022/07/21 01:49:30;;;;;;;4.40;4.00;;;25.60;99.90;;;;;;1042801;28;20017;-64
2022/07/21 01:50:00;;;;;;;4.73;4.17;;;25.60;99.90;;;;;;1043056;28;20021;-65
2022/07/21 01:50:31;;;;;;;4.50;4.10;;;25.60;99.90;;;;;;1042738;28;20024;-62
2022/07/21 01:51:02;;;;;;;4.87;3.80;;;25.60;99.90;;;;;;1042945;28;20021;-63
2022/07/21 01:51:33;;;;;;;4.23;3.93;;;25.60;99.90;;;;;;1042728;28;20044;-64
2022/07/21 01:52:04;;;;;;;5.10;4.60;;;25.60;99.90;;;;;;1042917;28;20013;-62
2022/07/21 01:52:34;;;;;;;5.10;4.60;;;25.50;99.90;;;;;;1042868;28;20033;-62
2022/07/21 01:53:05;;;;;;;4.40;4.00;;;25.50;99.90;;;;;;1043017;28;20025;-63
2022/07/21 01:53:37;;;;;;;5.87;5.27;;;25.50;99.90;;;;;;1042938;28;20130;-62
2022/07/21 01:54:09;;;;;;;4.30;3.90;;;25.50;99.90;;;;;;1043082;28;20037;-61
2022/07/21 01:54:39;;;;;;;4.88;4.47;;;25.50;99.90;;;;;;1042739;28;20017;-62
2022/07/21 01:55:10;;;;;;;4.93;4.53;;;25.50;99.90;;;;;;1043049;28;20108;-63
2022/07/21 01:55:40;;;;;;;4.53;4.13;;;25.50;99.90;;;;;;1042943;28;20032;-62
2022/07/21 01:56:11;;;;;;;4.80;4.40;;;25.50;99.90;;;;;;1042983;28;20478;-63
2022/07/21 01:56:42;;;;;;;4.90;4.40;;;25.50;99.90;;;;;;1042830;28;20025;-62
2022/07/21 01:57:12;;;;;;;4.33;3.93;;;25.50;99.90;;;;;;1043027;28;20017;-62
2022/07/21 01:57:43;;;;;;;4.93;4.40;;;25.50;99.90;;;;;;1042883;28;20028;-62
2022/07/21 01:58:13;;;;;;;5.27;4.77;;;25.50;99.90;;;;;;1042906;28;20696;-63
2022/07/21 01:58:44;;;;;;;5.00;4.60;;;25.50;99.90;;;;;;1042770;28;20029;-62
2022/07/21 01:59:15;;;;;;;4.83;4.37;;;25.50;99.90;;;;;;1042901;28;20052;-63
2022/07/21 01:59:45;;;;;;;4.97;4.40;;;25.50;99.90;;;;;;1042815;28;20572;-62
2022/07/21 02:00:16;;;;;;;5.07;4.57;;;25.50;99.90;;;;;;1042956;28;20405;-63
2022/07/21 02:00:47;;;;;;;4.35;3.95;;;25.60;99.90;;;;;;1042995;28;20031;-63
2022/07/21 02:01:19;;;;;;;5.90;4.77;;;25.60;99.90;;;;;;1042758;28;20633;-63
2022/07/21 02:01:50;;;;;;;5.03;4.53;;;25.60;99.90;;;;;;1042567;28;20044;-63
2022/07/21 02:02:21;;;;;;;5.07;4.60;;;25.60;99.90;;;;;;1042528;28;20094;-63
2022/07/21 02:02:51;;;;;;;5.03;4.55;;;25.60;99.90;;;;;;1042926;28;20524;-63
2022/07/21 02:03:22;;;;;;;5.13;4.70;;;25.60;99.90;;;;;;1042638;28;20508;-63
2022/07/21 02:03:55;;;;;;;4.67;4.27;;;25.60;99.90;;;;;;1043019;28;20499;-63
2022/07/21 02:04:25;;;;;;;6.88;4.63;;;25.60;99.90;;;;;;1042688;28;20160;-62
2022/07/21 02:04:56;;;;;;;6.40;5.20;;;25.60;99.90;;;;;;1043194;28;20932;-63
2022/07/21 02:05:26;;;;;;;4.97;4.47;;;25.60;99.90;;;;;;1042723;28;20028;-62
2022/07/21 02:06:02;;;;;;;4.80;4.40;;;25.60;99.90;;;;;;1042958;28;20052;-62
2022/07/21 02:06:33;;;;;;;5.15;4.65;;;25.60;99.90;;;;;;1042849;28;20017;-62
2022/07/21 02:07:04;;;;;;;4.75;4.35;;;25.60;99.90;;;;;;1042859;28;20024;-63
2022/07/21 02:07:34;;;;;;;5.50;4.33;;;25.60;99.90;;;;;;1042822;28;20029;-62
2022/07/21 02:08:05;;;;;;;4.73;4.33;;;25.60;99.90;;;;;;1042053;28;20025;-62
2022/07/21 02:08:36;;;;;;;5.67;4.83;;;25.60;99.90;;;;;;1038539;28;20021;-64
2022/07/21 02:09:08;;;;;;;4.83;4.37;;;25.60;99.90;;;;;;1040238;28;20542;-62
2022/07/21 02:09:38;;;;;;;5.25;4.75;;;25.60;99.90;;;;;;1042714;28;20017;-63
2022/07/21 02:10:09;;;;;;;5.53;5.03;;;25.60;99.90;;;;;;1043024;28;20120;-64
2022/07/21 02:10:40;;;;;;;4.80;4.40;;;25.60;99.90;;;;;;1042724;28;20053;-63
2022/07/21 02:11:12;;;;;;;5.00;4.50;;;25.60;99.90;;;;;;1043075;28;20021;-62
2022/07/21 02:11:43;;;;;;;4.47;4.07;;;25.60;99.90;;;;;;1042676;28;20024;-63
2022/07/21 02:12:13;;;;;;;5.60;5.10;;;25.60;99.90;;;;;;1042612;28;20017;-63
2022/07/21 02:12:44;;;;;;;5.63;5.03;;;25.50;99.90;;;;;;1042230;28;20436;-64
2022/07/21 02:13:14;;;;;;;5.40;4.90;;;25.50;99.90;;;;;;1042639;28;20107;-61
2022/07/21 02:13:46;;;;;;;5.63;5.17;;;25.50;99.90;;;;;;1042505;28;20032;-62
2022/07/21 02:14:16;;;;;;;5.47;4.97;;;25.50;99.90;;;;;;1039889;28;20080;-62
2022/07/21 02:14:47;;;;;;;5.20;4.70;;;25.50;99.90;;;;;;1038738;28;20099;-63
2022/07/21 02:15:18;;;;;;;5.30;4.80;;;25.50;99.90;;;;;;1038804;28;20075;-62
2022/07/21 02:15:48;;;;;;;5.53;5.03;;;25.50;99.90;;;;;;1038558;28;20056;-63
2022/07/21 02:16:19;;;;;;;5.23;4.73;;;25.50;99.90;;;;;;1038783;28;20049;-62
2022/07/21 02:16:49;;;;;;;5.20;4.70;;;25.50;99.90;;;;;;1038822;28;20080;-63
2022/07/21 02:17:20;;;;;;;5.30;4.90;;;25.50;99.90;;;;;;1038752;28;20035;-62
2022/07/21 02:17:51;;;;;;;5.37;4.87;;;25.50;99.90;;;;;;1038778;28;20040;-62
2022/07/21 02:18:21;;;;;;;5.60;4.80;;;25.50;99.90;;;;;;1038739;28;20408;-63
2022/07/21 02:18:52;;;;;;;5.57;5.07;;;25.50;99.90;;;;;;1038712;28;20484;-62
2022/07/21 02:19:23;;;;;;;5.10;4.70;;;25.50;99.90;;;;;;1038748;28;20099;-63
2022/07/21 02:19:53;;;;;;;6.13;5.53;;;25.50;99.90;;;;;;1038648;28;20495;-63
2022/07/21 02:20:24;;;;;;;6.50;5.90;;;25.50;99.90;;;;;;1038630;28;20044;-62
2022/07/21 02:20:55;;;;;;;5.63;5.13;;;25.50;99.90;;;;;;1038810;28;20103;-62
2022/07/21 02:21:26;;;;;;;5.47;4.97;;;25.40;99.90;;;;;;1038620;28;20064;-63
2022/07/21 02:21:56;;;;;;;5.47;4.97;;;25.40;99.90;;;;;;1038692;28;20469;-62
2022/07/21 02:22:27;;;;;;;6.43;4.73;;;25.40;99.90;;;;;;1038543;28;20018;-63
2022/07/21 02:22:57;;;;;;;5.90;5.33;;;25.40;99.90;;;;;;1038686;28;20179;-64
2022/07/21 02:23:29;;;;;;;5.80;5.30;;;25.40;99.90;;;;;;1038584;28;20109;-63
2022/07/21 02:24:00;;;;;;;5.50;5.00;;;25.40;99.90;;;;;;1038796;28;20565;-62
2022/07/21 02:24:30;;;;;;;5.63;5.13;;;25.40;99.90;;;;;;1038711;28;20433;-62
2022/07/21 02:25:01;;;;;;;5.93;5.43;;;25.40;99.90;;;;;;1038819;28;20516;-62
2022/07/21 02:25:31;;;;;;;5.93;5.43;;;25.40;99.90;;;;;;1038673;28;20473;-62
2022/07/21 02:26:02;;;;;;;5.03;4.53;;;25.40;99.90;;;;;;1038829;28;20026;-62
2022/07/21 02:26:33;;;;;;;7.35;5.85;;;25.40;99.90;;;;;;1038523;28;20025;-62
2022/07/21 02:27:03;;;;;;;5.27;4.77;;;25.40;99.90;;;;;;1038875;28;20029;-62
2022/07/21 02:27:34;;;;;;;5.67;5.07;;;25.40;99.90;;;;;;1038633;28;20099;-63
2022/07/21 02:28:05;;;;;;;5.87;5.13;;;25.40;99.90;;;;;;1038647;28;20072;-62
2022/07/21 02:28:35;;;;;;;6.57;5.97;;;25.40;99.90;;;;;;1038568;28;20037;-63
2022/07/21 02:29:06;;;;;;;5.47;4.77;;;25.40;99.90;;;;;;1038853;28;20064;-62
2022/07/21 02:29:36;;;;;;;6.03;5.43;;;25.40;99.90;;;;;;1038437;28;20080;-62
2022/07/21 02:30:07;;;;;;;6.10;5.50;;;25.40;99.90;;;;;;1038937;28;20108;-63
2022/07/21 02:30:38;;;;;;;6.10;5.45;;;25.40;99.90;;;;;;1038350;28;20536;-62
2022/07/21 02:31:09;;;;;;;6.13;5.53;;;25.40;99.90;;;;;;1038876;28;20108;-62
2022/07/21 02:31:40;;;;;;;6.30;5.70;;;25.40;99.90;;;;;;1038584;28;20033;-62
2022/07/21 02:32:10;;;;;;;5.97;5.40;;;25.30;99.90;;;;;;1038892;28;20193;-62
2022/07/21 02:32:41;;;;;;;7.17;5.77;;;25.30;99.90;;;;;;1038300;28;20095;-63
2022/07/21 02:33:12;;;;;;;5.83;5.33;;;25.30;99.90;;;;;;1038701;28;20052;-62
2022/07/21 02:33:42;;;;;;;6.13;5.53;;;25.30;99.90;;;;;;1038429;28;20511;-63
2022/07/21 02:34:13;;;;;;;5.93;5.43;;;25.30;99.90;;;;;;1038847;28;20029;-63
2022/07/21 02:34:44;;;;;;;5.37;4.87;;;25.30;99.90;;;;;;1038529;28;20117;-62
2022/07/21 02:35:14;;;;;;;5.53;5.03;;;25.30;99.90;;;;;;1038851;28;20538;-62
2022/07/21 02:35:45;;;;;;;5.73;5.23;;;25.30;99.90;;;;;;1038509;28;20754;-62
2022/07/21 02:36:16;;;;;;;6.03;5.43;;;25.30;99.90;;;;;;1038764;28;20033;-62
2022/07/21 02:36:46;;;;;;;5.73;5.23;;;25.30;99.90;;;;;;1038530;28;20329;-62
2022/07/21 02:37:17;;;;;;;6.33;5.73;;;25.30;99.90;;;;;;1038632;28;20018;-62
2022/07/21 02:37:47;;;;;;;6.13;5.47;;;25.30;99.90;;;;;;1038656;28;20627;-62
2022/07/21 02:38:18;;;;;;;5.67;5.17;;;25.30;99.90;;;;;;1038538;28;20034;-62
2022/07/21 02:38:50;;;;;;;5.07;4.67;;;25.30;99.90;;;;;;1038606;28;20057;-62
2022/07/21 02:39:21;;;;;;;5.05;4.60;;;25.30;99.90;;;;;;1038626;28;20029;-62
2022/07/21 02:39:51;;;;;;;5.97;5.47;;;25.30;99.90;;;;;;1038655;28;20025;-63
2022/07/21 02:40:22;;;;;;;5.33;4.67;;;25.30;99.90;;;;;;1038565;28;20100;-62
2022/07/21 02:40:52;;;;;;;6.50;5.53;;;25.30;99.90;;;;;;1038703;28;20080;-62
2022/07/21 02:41:23;;;;;;;5.60;5.10;;;25.30;99.90;;;;;;1038619;28;20030;-62
2022/07/21 02:41:53;;;;;;;6.00;5.40;;;25.30;99.90;;;;;;1038775;28;20029;-62
2022/07/21 02:42:24;;;;;;;8.30;5.40;;;25.30;99.90;;;;;;1041783;28;20040;-62
2022/07/21 02:42:55;;;;;;;6.00;5.50;;;25.30;99.90;;;;;;1042763;28;20086;-62
2022/07/21 02:43:25;;;;;;;6.63;5.90;;;25.30;99.90;;;;;;1042685;28;20116;-62
2022/07/21 02:43:56;;;;;;;5.70;5.20;;;25.30;99.90;;;;;;1042946;28;20013;-62
2022/07/21 02:44:26;;;;;;;5.60;5.07;;;25.30;99.90;;;;;;1042702;28;20021;-62
2022/07/21 02:44:57;;;;;;;6.47;5.67;;;25.30;99.90;;;;;;1042852;28;20013;-62